Time;durP1;ratioP1;P1;durP2;ratioP2;P2;SDS_P1;SDS_P2;PMS_P1;PMS_P2;Temp;Humidity;BMP_temperature;BMP_pressure;BME280_temperature;BME280_humidity;BME280_pressure;Samples;Min_cycle;Max_cycle;Signal;HPM_P1;HPM_P2
2021/12/25 00:00:04;;;;;;;3.87;1.70;;;;;;;;;;5012340;28;20480;-62
2021/12/25 00:02:33;;;;;;;3.77;1.20;;;;;;;;;;5014291;28;20025;-62
2021/12/25 00:05:00;;;;;;;3.87;1.20;;;;;;;;;;5014242;28;20482;-61
2021/12/25 00:07:26;;;;;;;4.70;1.67;;;;;;;;;;5028272;28;20033;-61
2021/12/25 00:09:53;;;;;;;3.47;1.30;;;;;;;;;;5034094;28;20064;-62
2021/12/25 00:12:20;;;;;;;9.43;1.53;;;;;;;;;;5030293;28;20041;-62
2021/12/25 00:14:47;;;;;;;3.60;1.60;;;;;;;;;;5028758;28;20864;-61
2021/12/25 00:17:13;;;;;;;5.07;1.40;;;;;;;;;;5028735;28;20033;-62
2021/12/25 00:19:40;;;;;;;4.07;1.63;;;;;;;;;;5028480;28;20036;-61
2021/12/25 00:22:07;;;;;;;3.97;1.70;;;;;;;;;;5031000;28;20033;-62
2021/12/25 00:24:33;;;;;;;4.57;1.97;;;;;;;;;;5033614;28;20092;-62
2021/12/25 00:27:10;;;;;;;9.93;1.87;;;;;;;;;;5033260;28;20400;-62
2021/12/25 00:32:36;;;;;;;8.90;1.87;;;;;;;;;;5033244;28;20369;-61
2021/12/25 00:35:00;;;;;;;3.97;1.90;;;;;;;;;;5028689;28;20686;-62
2021/12/25 00:37:27;;;;;;;8.83;3.00;;;;;;;;;;5028327;28;20542;-62
2021/12/25 00:39:56;;;;;;;10.00;2.20;;;;;;;;;;5028007;28;20455;-62
2021/12/25 00:42:22;;;;;;;6.40;2.00;;;;;;;;;;5028105;28;20037;-61
2021/12/25 00:44:50;;;;;;;8.00;2.50;;;;;;;;;;5031485;28;20029;-61
2021/12/25 00:47:16;;;;;;;9.60;2.80;;;;;;;;;;5033265;28;20052;-61
2021/12/25 00:49:43;;;;;;;8.97;2.67;;;;;;;;;;5033346;28;20026;-61
2021/12/25 00:52:10;;;;;;;8.73;2.40;;;;;;;;;;5032781;28;20052;-61
2021/12/25 00:54:37;;;;;;;5.30;1.87;;;;;;;;;;5033224;28;20478;-61
2021/12/25 00:57:04;;;;;;;3.73;1.77;;;;;;;;;;5029507;28;20021;-61
2021/12/25 00:59:31;;;;;;;6.77;2.27;;;;;;;;;;5027507;28;20022;-62
2021/12/25 01:01:58;;;;;;;7.90;2.17;;;;;;;;;;5027940;28;20025;-62
2021/12/25 01:04:26;;;;;;;9.17;2.30;;;;;;;;;;5027620;28;20076;-61
2021/12/25 01:06:53;;;;;;;7.23;3.07;;;;;;;;;;5030348;28;20476;-61
2021/12/25 01:09:20;;;;;;;6.47;3.40;;;;;;;;;;5032735;28;20013;-62
2021/12/25 01:11:49;;;;;;;5.77;2.43;;;;;;;;;;5032787;28;20063;-63
2021/12/25 01:14:41;;;;;;;9.67;3.77;;;;;;;;;;5032873;28;20044;-61
2021/12/25 01:20:20;;;;;;;12.55;2.88;;;;;;;;;;5027619;28;20124;-61
2021/12/25 01:23:08;;;;;;;7.37;2.70;;;;;;;;;;5027708;28;20388;-62
2021/12/25 01:25:48;;;;;;;9.23;3.67;;;;;;;;;;5027068;28;20828;-61
2021/12/25 01:31:12;;;;;;;11.33;5.90;;;;;;;;;;5032719;28;20427;-61
2021/12/25 01:37:07;;;;;;;12.83;4.10;;;;;;;;;;5032494;28;20030;-61
2021/12/25 01:39:08;;;;;;;7.33;3.33;;;;;;;;;;5032010;28;20029;-62
2021/12/25 01:41:59;;;;;;;12.43;4.37;;;;;;;;;;5028036;28;20020;-61
2021/12/25 01:49:57;;;;;;;14.55;3.63;;;;;;;;;;5027348;28;20088;-61
2021/12/25 01:52:28;;;;;;;10.63;3.63;;;;;;;;;;5031493;28;20484;-61
2021/12/25 01:54:58;;;;;;;8.77;3.20;;;;;;;;;;5032228;28;20075;-61
2021/12/25 01:57:25;;;;;;;8.60;3.57;;;;;;;;;;5031793;28;20540;-62
2021/12/25 01:59:52;;;;;;;7.50;2.90;;;;;;;;;;5032299;28;20017;-61
2021/12/25 02:02:18;;;;;;;15.40;4.03;;;;;;;;;;5031801;28;20014;-61
2021/12/25 02:04:45;;;;;;;11.63;3.57;;;;;;;;;;5026666;28;20060;-61
2021/12/25 02:07:12;;;;;;;9.67;3.63;;;;;;;;;;5026814;28;20026;-61
2021/12/25 02:09:39;;;;;;;9.07;3.80;;;;;;;;;;5026953;28;20388;-61
2021/12/25 02:12:06;;;;;;;8.00;3.07;;;;;;;;;;5026877;28;20056;-61
2021/12/25 02:14:35;;;;;;;6.70;2.93;;;;;;;;;;5031340;28;20033;-61
2021/12/25 02:17:15;;;;;;;15.70;2.87;;;;;;;;;;5032058;28;20432;-61
2021/12/25 02:19:53;;;;;;;19.23;4.10;;;;;;;;;;5031726;28;20040;-61
2021/12/25 02:22:23;;;;;;;11.30;3.73;;;;;;;;;;5032159;28;20033;-61
2021/12/25 02:24:50;;;;;;;10.43;3.57;;;;;;;;;;5031213;28;20032;-61
2021/12/25 02:27:17;;;;;;;14.30;5.57;;;;;;;;;;5026793;28;20079;-61
2021/12/25 02:29:43;;;;;;;12.40;4.70;;;;;;;;;;5026710;28;20072;-61
2021/12/25 02:32:10;;;;;;;10.30;3.67;;;;;;;;;;5026158;28;20034;-61
2021/12/25 02:34:37;;;;;;;14.17;3.87;;;;;;;;;;5025727;28;20026;-61
2021/12/25 02:37:04;;;;;;;15.10;3.60;;;;;;;;;;5031749;28;20033;-61
2021/12/25 02:39:31;;;;;;;14.57;3.70;;;;;;;;;;5031640;28;20056;-61
2021/12/25 02:41:57;;;;;;;9.83;3.37;;;;;;;;;;5031689;28;20028;-61
2021/12/25 02:44:24;;;;;;;8.53;3.10;;;;;;;;;;5032882;28;20029;-61
2021/12/25 02:46:54;;;;;;;6.80;2.97;;;;;;;;;;5031638;28;20025;-61
2021/12/25 02:49:21;;;;;;;11.00;2.07;;;;;;;;;;5026300;28;20035;-61
2021/12/25 02:51:48;;;;;;;7.20;3.07;;;;;;;;;;5026420;28;20037;-61
2021/12/25 02:54:15;;;;;;;8.90;3.20;;;;;;;;;;5028833;28;20021;-61
2021/12/25 02:56:42;;;;;;;4.57;2.07;;;;;;;;;;5030229;28;20039;-61
2021/12/25 02:59:12;;;;;;;6.90;2.63;;;;;;;;;;5034853;28;20080;-61
2021/12/25 03:01:39;;;;;;;6.00;2.83;;;;;;;;;;5035336;28;20017;-61
2021/12/25 03:04:06;;;;;;;7.00;2.50;;;;;;;;;;5034790;28;20380;-61
2021/12/25 03:06:37;;;;;;;7.90;3.00;;;;;;;;;;5035209;28;20136;-61
2021/12/25 03:09:07;;;;;;;10.17;3.37;;;;;;;;;;5034929;28;20492;-62
2021/12/25 03:11:35;;;;;;;7.47;2.83;;;;;;;;;;5029625;28;20033;-61
2021/12/25 03:14:31;;;;;;;13.33;2.70;;;;;;;;;;5029841;28;20017;-61
2021/12/25 03:16:57;;;;;;;6.63;2.30;;;;;;;;;;5029912;28;20039;-61
2021/12/25 03:19:31;;;;;;;11.70;3.00;;;;;;;;;;5030370;28;20037;-61
2021/12/25 03:21:58;;;;;;;5.37;2.60;;;;;;;;;;5034887;28;20111;-61
2021/12/25 03:24:28;;;;;;;9.57;3.93;;;;;;;;;;5034703;28;20063;-61
2021/12/25 03:26:57;;;;;;;10.27;3.20;;;;;;;;;;5034258;28;20415;-61
2021/12/25 03:29:24;;;;;;;6.00;2.47;;;;;;;;;;5034657;28;20049;-61
2021/12/25 03:31:51;;;;;;;11.20;2.50;;;;;;;;;;5033032;28;20041;-60
2021/12/25 03:34:18;;;;;;;10.30;3.37;;;;;;;;;;5029501;28;20030;-61
2021/12/25 03:36:45;;;;;;;7.10;2.70;;;;;;;;;;5029413;28;20029;-61
2021/12/25 03:39:14;;;;;;;7.20;2.63;;;;;;;;;;5029413;28;20028;-61
2021/12/25 03:41:41;;;;;;;7.83;2.30;;;;;;;;;;5029357;28;20084;-61
2021/12/25 03:44:07;;;;;;;8.67;2.50;;;;;;;;;;5034585;28;20028;-61
2021/12/25 03:46:34;;;;;;;7.53;2.07;;;;;;;;;;5034297;28;20028;-61
2021/12/25 03:49:06;;;;;;;6.67;2.07;;;;;;;;;;5034544;28;20076;-61
2021/12/25 03:59:58;;;;;;;5.85;2.45;;;;;;;;;;5028483;28;20067;-61
2021/12/25 04:02:32;;;;;;;6.50;2.67;;;;;;;;;;5028463;28;20486;-61
2021/12/25 04:05:02;;;;;;;3.85;1.63;;;;;;;;;;5030772;28;20022;-61
2021/12/25 04:08:00;;;;;;;6.90;2.03;;;;;;;;;;5033966;28;20029;-60
2021/12/25 04:10:28;;;;;;;8.67;2.80;;;;;;;;;;5034119;28;20025;-60
2021/12/25 04:12:55;;;;;;;5.07;2.67;;;;;;;;;;5033807;28;20037;-61
2021/12/25 04:15:22;;;;;;;6.77;2.50;;;;;;;;;;5034019;28;20570;-60
2021/12/25 04:17:49;;;;;;;10.10;3.47;;;;;;;;;;5028967;28;20104;-60
2021/12/25 04:20:17;;;;;;;10.63;4.50;;;;;;;;;;5028166;28;20029;-61
2021/12/25 04:22:49;;;;;;;13.17;3.77;;;;;;;;;;5028364;28;20057;-61
2021/12/25 04:25:22;;;;;;;8.50;2.37;;;;;;;;;;5028466;28;20105;-60
2021/12/25 04:27:49;;;;;;;6.37;2.90;;;;;;;;;;5032918;28;20164;-61
2021/12/25 04:30:30;;;;;;;7.20;3.73;;;;;;;;;;5033371;28;20040;-60
2021/12/25 05:03:09;;;;;;;7.07;3.33;;;;;;;;;;5027253;28;20503;-60
2021/12/25 05:05:36;;;;;;;9.23;2.90;;;;;;;;;;5027949;28;20532;-60
2021/12/25 05:08:03;;;;;;;8.50;2.60;;;;;;;;;;5027382;28;20017;-60
2021/12/25 05:10:30;;;;;;;4.13;2.20;;;;;;;;;;5027859;28;21056;-61
2021/12/25 05:12:57;;;;;;;7.40;2.97;;;;;;;;;;5032914;28;20037;-61
2021/12/25 05:15:23;;;;;;;11.53;3.07;;;;;;;;;;5032775;28;20025;-60
2021/12/25 05:17:50;;;;;;;7.30;3.40;;;;;;;;;;5032327;28;20032;-60
2021/12/25 05:20:18;;;;;;;11.07;4.67;;;;;;;;;;5032676;28;20021;-60
2021/12/25 05:22:45;;;;;;;8.03;3.43;;;;;;;;;;5031867;28;20025;-60
2021/12/25 05:25:12;;;;;;;9.73;3.00;;;;;;;;;;5027296;28;20022;-61
2021/12/25 05:27:39;;;;;;;8.83;4.37;;;;;;;;;;5027453;28;20334;-61
2021/12/25 05:30:06;;;;;;;13.83;3.80;;;;;;;;;;5027422;28;20449;-61
2021/12/25 05:32:33;;;;;;;6.40;3.27;;;;;;;;;;5027255;28;20293;-60
2021/12/25 05:35:00;;;;;;;4.07;2.20;;;;;;;;;;5032422;28;20313;-60
2021/12/25 05:37:26;;;;;;;6.83;2.83;;;;;;;;;;5032520;28;20247;-60
2021/12/25 05:39:53;;;;;;;6.37;2.80;;;;;;;;;;5032460;28;20746;-61
2021/12/25 05:42:22;;;;;;;5.63;2.43;;;;;;;;;;5031768;28;20298;-60
2021/12/25 05:44:50;;;;;;;8.03;3.00;;;;;;;;;;5032301;28;20255;-60
2021/12/25 05:47:17;;;;;;;6.33;3.07;;;;;;;;;;5026592;28;20267;-60
2021/12/25 05:49:43;;;;;;;6.43;3.37;;;;;;;;;;5027230;28;21509;-61
2021/12/25 05:52:10;;;;;;;10.00;3.87;;;;;;;;;;5027181;28;20637;-60
2021/12/25 05:54:37;;;;;;;7.90;3.27;;;;;;;;;;5026975;28;20753;-60
2021/12/25 05:57:04;;;;;;;7.40;3.40;;;;;;;;;;5031857;28;20324;-60
2021/12/25 05:59:31;;;;;;;8.10;3.50;;;;;;;;;;5032053;28;20267;-60
2021/12/25 06:01:57;;;;;;;9.77;3.70;;;;;;;;;;5032325;28;20247;-60
2021/12/25 06:04:24;;;;;;;10.60;3.13;;;;;;;;;;5032169;28;20259;-60
2021/12/25 06:06:51;;;;;;;5.83;3.80;;;;;;;;;;5032420;28;20257;-60
2021/12/25 06:09:18;;;;;;;14.77;3.40;;;;;;;;;;5026443;28;20270;-60
2021/12/25 06:11:45;;;;;;;6.70;3.23;;;;;;;;;;5026864;28;20318;-60
2021/12/25 06:14:18;;;;;;;6.90;3.30;;;;;;;;;;5027075;28;20262;-61
2021/12/25 06:16:45;;;;;;;13.63;3.57;;;;;;;;;;5026864;28;20261;-60
2021/12/25 06:19:12;;;;;;;5.50;2.60;;;;;;;;;;5031436;28;20265;-60
2021/12/25 06:21:39;;;;;;;5.37;2.57;;;;;;;;;;5032142;28;20262;-60
2021/12/25 06:24:06;;;;;;;9.23;2.80;;;;;;;;;;5031408;28;20259;-60
2021/12/25 06:26:33;;;;;;;5.83;2.70;;;;;;;;;;5032028;28;20772;-60
2021/12/25 06:29:00;;;;;;;8.93;2.60;;;;;;;;;;5034285;28;20668;-60
2021/12/25 06:31:27;;;;;;;5.13;2.43;;;;;;;;;;5030761;28;20274;-60
2021/12/25 06:33:54;;;;;;;4.90;2.20;;;;;;;;;;5030575;28;20328;-61
2021/12/25 06:36:21;;;;;;;5.57;2.40;;;;;;;;;;5030549;28;20262;-60
2021/12/25 06:38:48;;;;;;;4.40;2.53;;;;;;;;;;5030007;28;20285;-60
2021/12/25 06:41:15;;;;;;;5.13;2.30;;;;;;;;;;5034514;28;20295;-60
2021/12/25 06:43:42;;;;;;;4.97;2.23;;;;;;;;;;5035481;28;20342;-60
2021/12/25 06:46:08;;;;;;;5.23;2.63;;;;;;;;;;5035674;28;20251;-59
2021/12/25 06:48:36;;;;;;;7.03;2.27;;;;;;;;;;5035716;28;20263;-60
2021/12/25 06:51:03;;;;;;;5.83;3.00;;;;;;;;;;5035433;28;20270;-60
2021/12/25 06:53:29;;;;;;;6.77;2.90;;;;;;;;;;5030774;28;20777;-60
2021/12/25 06:55:56;;;;;;;9.43;3.30;;;;;;;;;;5029768;28;20266;-60
2021/12/25 06:58:23;;;;;;;4.93;2.60;;;;;;;;;;5029913;28;20343;-60
2021/12/25 07:00:50;;;;;;;4.30;2.40;;;;;;;;;;5030132;28;20263;-60
2021/12/25 07:03:16;;;;;;;4.23;2.30;;;;;;;;;;5033844;28;20259;-60
2021/12/25 07:05:43;;;;;;;7.50;2.53;;;;;;;;;;5034944;28;20312;-60
2021/12/25 07:08:10;;;;;;;3.80;1.97;;;;;;;;;;5034993;28;20257;-60
2021/12/25 07:10:37;;;;;;;7.10;2.63;;;;;;;;;;5034750;28;20259;-59
2021/12/25 07:13:04;;;;;;;4.30;1.93;;;;;;;;;;5034974;28;20282;-60
2021/12/25 07:15:30;;;;;;;8.40;2.13;;;;;;;;;;5030940;28;20259;-60
2021/12/25 07:17:57;;;;;;;5.90;2.30;;;;;;;;;;5029954;28;20247;-60
2021/12/25 07:20:24;;;;;;;6.07;2.10;;;;;;;;;;5029866;28;20262;-60
2021/12/25 07:22:50;;;;;;;5.30;2.50;;;;;;;;;;5029669;28;20927;-60
2021/12/25 07:25:17;;;;;;;5.40;1.60;;;;;;;;;;5032689;28;20645;-60
2021/12/25 07:27:44;;;;;;;5.03;2.53;;;;;;;;;;5034478;28;20247;-60
2021/12/25 07:30:11;;;;;;;5.23;2.10;;;;;;;;;;5034832;28;20267;-59
2021/12/25 07:32:38;;;;;;;6.57;1.80;;;;;;;;;;5034724;28;20322;-60
2021/12/25 07:35:05;;;;;;;4.13;2.10;;;;;;;;;;5034867;28;20267;-59
2021/12/25 07:37:33;;;;;;;6.80;2.40;;;;;;;;;;5030961;28;20657;-60
2021/12/25 07:40:01;;;;;;;6.27;2.03;;;;;;;;;;5029372;28;21244;-59
2021/12/25 07:42:28;;;;;;;4.20;1.90;;;;;;;;;;5029125;28;20290;-59
2021/12/25 07:45:02;;;;;;;8.37;2.70;;;;;;;;;;5029335;28;20270;-60
2021/12/25 07:47:29;;;;;;;4.00;2.27;;;;;;;;;;5032433;28;20354;-59
2021/12/25 07:49:57;;;;;;;7.30;1.70;;;;;;;;;;5034472;28;20286;-59
2021/12/25 07:52:24;;;;;;;3.83;1.70;;;;;;;;;;5034285;28;20811;-59
2021/12/25 07:54:50;;;;;;;3.10;1.80;;;;;;;;;;5033952;28;20293;-60
2021/12/25 07:57:17;;;;;;;4.63;1.40;;;;;;;;;;5034137;28;20267;-59
2021/12/25 07:59:44;;;;;;;4.00;1.40;;;;;;;;;;5030461;28;20353;-60
2021/12/25 08:02:11;;;;;;;3.83;1.73;;;;;;;;;;5029054;28;20257;-60
2021/12/25 08:04:38;;;;;;;5.10;1.77;;;;;;;;;;5028896;28;20320;-60
2021/12/25 08:07:04;;;;;;;4.57;2.30;;;;;;;;;;5028956;28;20255;-60
2021/12/25 08:09:32;;;;;;;3.17;1.97;;;;;;;;;;5031731;28;20262;-60
2021/12/25 08:12:00;;;;;;;5.63;2.90;;;;;;;;;;5033826;28;20290;-59
2021/12/25 08:14:27;;;;;;;6.73;2.90;;;;;;;;;;5034066;28;20389;-60
2021/12/25 08:16:55;;;;;;;7.23;2.67;;;;;;;;;;5033791;28;20783;-60
2021/12/25 08:19:22;;;;;;;9.67;2.40;;;;;;;;;;5033950;28;20282;-60
2021/12/25 08:21:49;;;;;;;7.60;2.60;;;;;;;;;;5030551;28;20265;-59
2021/12/25 08:24:16;;;;;;;4.97;2.97;;;;;;;;;;5028274;28;20278;-60
2021/12/25 08:26:44;;;;;;;5.70;2.47;;;;;;;;;;5028341;28;20262;-60
2021/12/25 08:29:10;;;;;;;7.13;3.17;;;;;;;;;;5028397;28;20405;-59
2021/12/25 08:31:37;;;;;;;5.13;2.47;;;;;;;;;;5031034;28;20281;-59
2021/12/25 08:34:04;;;;;;;4.57;2.33;;;;;;;;;;5033126;28;20274;-60
2021/12/25 08:36:31;;;;;;;7.47;2.67;;;;;;;;;;5033303;28;20799;-60
2021/12/25 08:38:59;;;;;;;5.87;2.40;;;;;;;;;;5033524;28;20768;-60
2021/12/25 08:41:29;;;;;;;9.63;3.40;;;;;;;;;;5032879;28;20285;-60
2021/12/25 08:44:03;;;;;;;5.97;2.70;;;;;;;;;;5030180;28;20279;-60
2021/12/25 08:46:56;;;;;;;5.33;2.07;;;;;;;;;;5028095;28;20312;-59
2021/12/25 08:49:17;;;;;;;3.93;2.27;;;;;;;;;;5027253;28;20275;-59
2021/12/25 08:51:44;;;;;;;3.87;2.13;;;;;;;;;;5027413;28;20363;-60
2021/12/25 08:54:12;;;;;;;8.50;2.57;;;;;;;;;;5031495;28;20682;-60
2021/12/25 08:56:39;;;;;;;3.13;1.80;;;;;;;;;;5032584;28;20278;-60
2021/12/25 08:59:06;;;;;;;4.33;2.43;;;;;;;;;;5033227;28;20293;-59
2021/12/25 09:01:33;;;;;;;6.83;2.10;;;;;;;;;;5032984;28;20275;-59
2021/12/25 09:04:00;;;;;;;4.90;2.10;;;;;;;;;;5032658;28;20324;-59
2021/12/25 09:06:27;;;;;;;4.17;2.00;;;;;;;;;;5028919;28;20263;-61
2021/12/25 09:08:54;;;;;;;5.03;2.43;;;;;;;;;;5027745;28;20618;-60
2021/12/25 09:11:21;;;;;;;2.90;1.20;;;;;;;;;;5027650;28;20253;-59
2021/12/25 09:13:49;;;;;;;5.17;2.00;;;;;;;;;;5027779;28;20246;-59
2021/12/25 09:16:16;;;;;;;3.67;2.00;;;;;;;;;;5030806;28;20247;-59
2021/12/25 09:18:43;;;;;;;5.30;2.33;;;;;;;;;;5032880;28;20281;-59
2021/12/25 09:21:10;;;;;;;6.67;1.97;;;;;;;;;;5032571;28;20350;-59
2021/12/25 09:23:37;;;;;;;5.00;2.27;;;;;;;;;;5032282;28;20262;-59
2021/12/25 09:26:04;;;;;;;5.27;2.23;;;;;;;;;;5032145;28;20297;-59
2021/12/25 09:28:31;;;;;;;5.47;2.20;;;;;;;;;;5028856;28;20275;-59
2021/12/25 09:30:58;;;;;;;5.23;2.10;;;;;;;;;;5027383;28;20289;-60
2021/12/25 09:33:24;;;;;;;4.83;2.37;;;;;;;;;;5027326;28;20318;-60
2021/12/25 09:35:51;;;;;;;7.20;2.47;;;;;;;;;;5027016;28;20278;-59
2021/12/25 09:38:18;;;;;;;4.93;1.70;;;;;;;;;;5029896;28;20327;-60
2021/12/25 09:40:45;;;;;;;2.37;1.50;;;;;;;;;;5032441;28;20313;-59
2021/12/25 09:43:13;;;;;;;3.67;1.87;;;;;;;;;;5032522;28;20849;-60
2021/12/25 09:45:40;;;;;;;5.27;1.83;;;;;;;;;;5032448;28;20255;-59
2021/12/25 09:48:07;;;;;;;5.40;2.33;;;;;;;;;;5032387;28;20658;-59
2021/12/25 09:50:34;;;;;;;4.57;2.13;;;;;;;;;;5028719;28;20848;-60
2021/12/25 09:53:04;;;;;;;5.13;1.93;;;;;;;;;;5026771;28;21214;-59
2021/12/25 09:55:31;;;;;;;5.87;1.80;;;;;;;;;;5026968;28;20350;-59
2021/12/25 09:57:58;;;;;;;3.97;1.50;;;;;;;;;;5027059;28;20324;-59
2021/12/25 10:00:26;;;;;;;6.63;2.20;;;;;;;;;;5029831;28;20277;-60
2021/12/25 10:02:56;;;;;;;3.93;1.63;;;;;;;;;;5032715;28;20266;-59
2021/12/25 10:05:31;;;;;;;3.53;2.00;;;;;;;;;;5036353;28;20308;-59
2021/12/25 10:08:07;;;;;;;3.03;1.60;;;;;;;;;;5035223;28;20680;-59
2021/12/25 10:10:40;;;;;;;3.28;1.48;;;;;;;;;;5036354;28;20296;-59
2021/12/25 10:13:17;;;;;;;5.30;1.50;;;;;;;;;;5031805;28;20035;-59
2021/12/25 10:15:45;;;;;;;2.43;1.27;;;;;;;;;;5030962;28;20747;-59
2021/12/25 10:18:11;;;;;;;2.90;1.50;;;;;;;;;;5030835;28;20258;-59
2021/12/25 10:20:38;;;;;;;3.63;2.00;;;;;;;;;;5030970;28;20273;-59
2021/12/25 10:23:08;;;;;;;2.07;1.20;;;;;;;;;;5034452;28;20254;-59
2021/12/25 10:25:43;;;;;;;4.87;1.73;;;;;;;;;;5035762;28;20754;-59
2021/12/25 10:28:10;;;;;;;2.33;1.30;;;;;;;;;;5035966;28;20258;-59
2021/12/25 10:30:55;;;;;;;3.33;1.83;;;;;;;;;;5035352;28;20695;-59
2021/12/25 10:33:30;;;;;;;3.22;1.70;;;;;;;;;;5035496;28;20325;-59
2021/12/25 10:35:58;;;;;;;2.22;1.50;;;;;;;;;;5030511;28;20034;-59
2021/12/25 10:38:25;;;;;;;2.20;1.23;;;;;;;;;;5030615;28;20025;-59
2021/12/25 10:41:08;;;;;;;2.20;1.10;;;;;;;;;;5030601;28;20262;-59
2021/12/25 10:43:41;;;;;;;2.80;0.87;;;;;;;;;;5030677;28;20393;-59
2021/12/25 10:46:08;;;;;;;2.53;0.60;;;;;;;;;;5035386;28;20750;-59
2021/12/25 10:48:34;;;;;;;2.67;1.00;;;;;;;;;;5035567;28;20262;-59
2021/12/25 10:51:01;;;;;;;2.40;1.20;;;;;;;;;;5035612;28;20749;-59
2021/12/25 10:53:41;;;;;;;2.47;1.27;;;;;;;;;;5035550;28;20618;-59
2021/12/25 10:56:12;;;;;;;3.37;0.90;;;;;;;;;;5034201;28;20405;-59
2021/12/25 10:58:39;;;;;;;2.47;0.97;;;;;;;;;;5029736;28;20267;-59
2021/12/25 11:01:07;;;;;;;2.60;0.83;;;;;;;;;;5030226;28;20263;-59
2021/12/25 11:03:36;;;;;;;1.70;0.87;;;;;;;;;;5029989;28;20255;-59
2021/12/25 11:06:06;;;;;;;1.13;0.70;;;;;;;;;;5030708;28;20348;-59
2021/12/25 11:08:33;;;;;;;1.10;0.83;;;;;;;;;;5035324;28;20349;-59
2021/12/25 11:10:59;;;;;;;1.30;0.90;;;;;;;;;;5034693;28;20364;-59
2021/12/25 11:13:29;;;;;;;1.73;1.00;;;;;;;;;;5034946;28;20290;-59
2021/12/25 11:16:05;;;;;;;2.43;1.10;;;;;;;;;;5035083;28;20251;-59
2021/12/25 11:18:33;;;;;;;1.93;1.07;;;;;;;;;;5033394;28;20263;-59
2021/12/25 11:21:00;;;;;;;1.37;0.90;;;;;;;;;;5029633;28;20254;-59
2021/12/25 11:23:29;;;;;;;1.90;0.90;;;;;;;;;;5029253;28;20293;-59
2021/12/25 11:25:55;;;;;;;0.87;0.73;;;;;;;;;;5029808;28;20266;-59
2021/12/25 11:28:22;;;;;;;1.30;0.80;;;;;;;;;;5029968;28;20278;-59
2021/12/25 11:30:50;;;;;;;2.30;1.13;;;;;;;;;;5034977;28;20263;-59
2021/12/25 11:33:17;;;;;;;2.37;1.10;;;;;;;;;;5034608;28;20788;-59
2021/12/25 11:35:43;;;;;;;1.80;0.77;;;;;;;;;;5034714;28;20636;-59
2021/12/25 11:38:11;;;;;;;2.47;1.00;;;;;;;;;;5034278;28;20342;-59
2021/12/25 11:40:44;;;;;;;1.97;1.00;;;;;;;;;;5032980;28;20262;-59
2021/12/25 11:43:11;;;;;;;3.10;1.03;;;;;;;;;;5029302;28;20329;-59
2021/12/25 11:45:40;;;;;;;1.60;0.97;;;;;;;;;;5029331;28;20266;-59
2021/12/25 11:48:15;;;;;;;1.77;0.97;;;;;;;;;;5029313;28;20741;-59
2021/12/25 11:50:45;;;;;;;1.77;0.95;;;;;;;;;;5030435;28;20254;-59
2021/12/25 11:53:20;;;;;;;1.70;0.80;;;;;;;;;;5034244;28;20049;-59
2021/12/25 11:56:20;;;;;;;1.52;0.50;;;;;;;;;;5034501;28;20346;-59
2021/12/25 11:58:52;;;;;;;0.83;0.43;;;;;;;;;;5034223;28;20025;-59
2021/12/25 12:01:22;;;;;;;1.20;0.70;;;;;;;;;;5034352;28;20263;-59
2021/12/25 12:03:54;;;;;;;4.53;1.20;;;;;;;;;;5030403;28;20262;-59
2021/12/25 12:06:39;;;;;;;1.30;0.80;;;;;;;;;;5029117;28;20291;-59
2021/12/25 12:09:10;;;;;;;1.73;1.00;;;;;;;;;;5028948;28;20760;-59
2021/12/25 12:11:40;;;;;;;0.70;0.47;;;;;;;;;;5028830;28;20036;-59
2021/12/25 12:14:12;;;;;;;1.00;0.50;;;;;;;;;;5033002;28;20263;-59
2021/12/25 12:16:40;;;;;;;1.13;0.57;;;;;;;;;;5033742;28;20251;-59
2021/12/25 12:19:27;;;;;;;2.87;0.73;;;;;;;;;;5034276;28;20266;-59
2021/12/25 12:21:54;;;;;;;1.30;0.70;;;;;;;;;;5033706;28;20251;-59
2021/12/25 12:27:12;;;;;;;1.37;0.70;;;;;;;;;;5035806;28;20267;-59
2021/12/25 12:29:47;;;;;;;1.33;0.90;;;;;;;;;;5028538;28;20254;-60
2021/12/25 12:32:19;;;;;;;1.83;0.82;;;;;;;;;;5028280;28;20637;-59
2021/12/25 12:34:47;;;;;;;2.63;1.13;;;;;;;;;;5028488;28;20029;-59
2021/12/25 12:37:17;;;;;;;3.33;1.60;;;;;;;;;;5033502;28;20263;-59
2021/12/25 12:39:58;;;;;;;3.93;1.70;;;;;;;;;;5033707;28;20267;-58
2021/12/25 12:42:39;;;;;;;2.57;1.20;;;;;;;;;;5033596;28;20346;-59
2021/12/25 12:45:14;;;;;;;5.67;2.10;;;;;;;;;;5033352;28;20649;-59
2021/12/25 12:47:42;;;;;;;8.07;1.98;;;;;;;;;;5030412;28;20289;-59
2021/12/25 12:50:11;;;;;;;4.60;1.60;;;;;;;;;;5028471;28;20026;-60
2021/12/25 12:52:41;;;;;;;4.13;1.60;;;;;;;;;;5027676;28;20781;-59
2021/12/25 12:55:26;;;;;;;1.77;0.90;;;;;;;;;;5027635;28;20270;-60
2021/12/25 12:58:07;;;;;;;1.65;0.88;;;;;;;;;;5031190;28;20277;-58
2021/12/25 13:00:34;;;;;;;5.03;1.13;;;;;;;;;;5033141;28;20060;-59
2021/12/25 13:03:01;;;;;;;5.57;1.30;;;;;;;;;;5032787;28;20254;-59
2021/12/25 13:05:32;;;;;;;3.97;1.40;;;;;;;;;;5032363;28;20278;-59
2021/12/25 13:08:01;;;;;;;2.87;1.40;;;;;;;;;;5032795;28;20283;-59
2021/12/25 13:10:43;;;;;;;2.93;1.30;;;;;;;;;;5028655;28;20327;-59
2021/12/25 13:13:10;;;;;;;2.10;1.20;;;;;;;;;;5027274;28;20293;-59
2021/12/25 13:15:41;;;;;;;2.87;1.77;;;;;;;;;;5027545;28;20286;-59
2021/12/25 13:18:08;;;;;;;4.70;1.50;;;;;;;;;;5027525;28;20302;-59
2021/12/25 13:20:40;;;;;;;2.87;1.33;;;;;;;;;;5032033;28;20253;-58
2021/12/25 13:23:08;;;;;;;4.93;1.30;;;;;;;;;;5032653;28;20255;-58
2021/12/25 13:25:35;;;;;;;2.50;1.00;;;;;;;;;;5032574;28;20251;-59
2021/12/25 13:28:04;;;;;;;3.37;1.33;;;;;;;;;;5032634;28;20258;-58
2021/12/25 13:30:31;;;;;;;3.60;1.70;;;;;;;;;;5032655;28;20261;-58
2021/12/25 13:33:11;;;;;;;10.67;2.20;;;;;;;;;;5027093;28;20329;-59
2021/12/25 13:35:38;;;;;;;4.07;1.10;;;;;;;;;;5027049;28;21117;-58
2021/12/25 13:38:05;;;;;;;2.17;1.23;;;;;;;;;;5026727;28;20760;-59
2021/12/25 13:40:32;;;;;;;1.70;1.00;;;;;;;;;;5027263;28;20270;-58
2021/12/25 13:43:06;;;;;;;2.97;1.20;;;;;;;;;;5032228;28;20251;-58
2021/12/25 13:45:33;;;;;;;5.75;1.50;;;;;;;;;;5032542;28;20266;-59
2021/12/25 13:48:00;;;;;;;3.33;1.47;;;;;;;;;;5032458;28;20029;-59
2021/12/25 13:50:27;;;;;;;6.00;1.53;;;;;;;;;;5032290;28;20334;-59
2021/12/25 13:53:39;;;;;;;3.43;1.40;;;;;;;;;;5032059;28;20278;-59
2021/12/25 13:55:42;;;;;;;2.83;1.60;;;;;;;;;;5029499;28;20362;-59
2021/12/25 13:58:12;;;;;;;6.27;1.77;;;;;;;;;;5027203;28;20263;-59
2021/12/25 14:00:46;;;;;;;5.50;2.00;;;;;;;;;;5026676;28;20250;-59
2021/12/25 14:03:14;;;;;;;2.97;1.40;;;;;;;;;;5027367;28;20757;-61
2021/12/25 14:05:42;;;;;;;4.33;1.90;;;;;;;;;;5012395;28;20584;-59
2021/12/25 14:08:13;;;;;;;6.93;2.17;;;;;;;;;;5012551;28;20325;-59
2021/12/25 14:10:40;;;;;;;5.63;2.10;;;;;;;;;;5012430;28;20800;-59
2021/12/25 14:13:14;;;;;;;5.43;2.40;;;;;;;;;;5011682;28;20290;-59
2021/12/25 14:15:43;;;;;;;5.40;2.33;;;;;;;;;;5010873;28;20784;-59
2021/12/25 14:18:10;;;;;;;7.20;2.30;;;;;;;;;;5007339;28;20267;-59
2021/12/25 14:20:38;;;;;;;5.60;2.10;;;;;;;;;;5007477;28;20263;-60
2021/12/25 14:23:07;;;;;;;3.13;1.70;;;;;;;;;;5026804;28;20349;-60
2021/12/25 14:25:35;;;;;;;4.57;1.70;;;;;;;;;;5027692;28;20259;-59
2021/12/25 14:28:07;;;;;;;10.03;2.17;;;;;;;;;;5032034;28;20700;-59
2021/12/25 14:30:37;;;;;;;9.00;2.50;;;;;;;;;;5031835;28;20658;-60
2021/12/25 14:33:04;;;;;;;5.83;1.70;;;;;;;;;;5031992;28;20668;-59
2021/12/25 14:35:31;;;;;;;3.70;1.50;;;;;;;;;;5031872;28;20749;-59
2021/12/25 14:38:00;;;;;;;4.73;1.53;;;;;;;;;;5029509;28;20765;-59
2021/12/25 14:40:33;;;;;;;3.40;1.67;;;;;;;;;;5026713;28;20254;-60
2021/12/25 14:43:02;;;;;;;4.57;1.70;;;;;;;;;;5026373;28;20659;-60
2021/12/25 14:45:29;;;;;;;6.70;1.90;;;;;;;;;;5026727;28;20259;-60
2021/12/25 14:47:57;;;;;;;5.17;1.73;;;;;;;;;;5028187;28;20045;-60
2021/12/25 14:50:27;;;;;;;4.80;1.50;;;;;;;;;;5034315;28;20473;-59
2021/12/25 14:53:04;;;;;;;3.70;1.70;;;;;;;;;;5035362;28;20029;-60
2021/12/25 14:55:34;;;;;;;4.70;1.40;;;;;;;;;;5035463;28;20025;-60
2021/12/25 14:58:16;;;;;;;2.87;1.30;;;;;;;;;;5035426;28;20025;-60
2021/12/25 15:00:44;;;;;;;2.23;1.20;;;;;;;;;;5032184;28;20029;-61
2021/12/25 15:03:22;;;;;;;8.03;1.80;;;;;;;;;;5029979;28;20522;-60
2021/12/25 15:05:50;;;;;;;5.50;1.70;;;;;;;;;;5030098;28;20039;-60
2021/12/25 15:08:18;;;;;;;5.07;2.00;;;;;;;;;;5029987;28;20033;-60
2021/12/25 15:10:45;;;;;;;7.10;2.80;;;;;;;;;;5031401;28;20025;-60
2021/12/25 15:13:18;;;;;;;7.23;2.03;;;;;;;;;;5034461;28;20036;-60
2021/12/25 15:15:48;;;;;;;6.17;2.37;;;;;;;;;;5035250;28;20025;-60
2021/12/25 15:18:26;;;;;;;8.23;2.27;;;;;;;;;;5035190;28;20489;-60
2021/12/25 15:21:10;;;;;;;4.90;2.60;;;;;;;;;;5034948;28;20403;-60
2021/12/25 15:23:37;;;;;;;6.15;3.10;;;;;;;;;;5030116;28;20021;-60
2021/12/25 15:26:12;;;;;;;4.60;2.47;;;;;;;;;;5029883;28;20029;-60
2021/12/25 15:28:40;;;;;;;8.23;2.90;;;;;;;;;;5029420;28;20027;-60
2021/12/25 15:31:17;;;;;;;4.60;2.27;;;;;;;;;;5029236;28;20060;-60
2021/12/25 15:33:45;;;;;;;4.07;2.30;;;;;;;;;;5034732;28;20385;-60
2021/12/25 15:36:15;;;;;;;7.27;3.73;;;;;;;;;;5034785;28;20025;-60
2021/12/25 15:38:42;;;;;;;10.60;3.83;;;;;;;;;;5034587;28;20467;-60
2021/12/25 15:41:09;;;;;;;9.77;4.50;;;;;;;;;;5034670;28;20018;-60
2021/12/25 15:43:36;;;;;;;6.93;3.33;;;;;;;;;;5033687;28;20101;-60
2021/12/25 15:46:04;;;;;;;8.83;3.30;;;;;;;;;;5029173;28;20033;-60
2021/12/25 15:48:32;;;;;;;6.33;3.83;;;;;;;;;;5029436;28;20033;-61
2021/12/25 15:50:59;;;;;;;18.73;6.27;;;;;;;;;;5029210;28;20025;-61